Mercury Ace — 3FNS7 — position and weather

sailwx.info

Track history (hours):
 
Tides and Currents Weather Stations Pressure Air Temp Water Temp Dewpoint Dewpoint Depression Visibility Wind Speed Wind Dir Waves Ship Positions

Mercury Ace

Last reported at 2018-Jun-08 22:03 UTC. Time now 2018-Jun-19 00:55 UTC.
Position N 49°58' W 004°01'.
Warning: this ship's position is 10 days out of date.

Length 199 m; draft 8.5 m.

Type: Ship. MMSI: 370644000.

Date/timePositionNaut miles runAvg speedWind from/ knotsBaromVisibWave heightAir tempDewpointWater temp
2018-Jun-08 22:03N 49°58' W 004°01'118.3
2018-Jun-08 22:01N 49°59' W 003°60'1018.6
2018-Jun-08 21:29N 50°02' W 003°45'919.1
2018-Jun-08 21:00N 50°08' W 003°35'919.0
2018-Jun-08 20:31N 50°17' W 003°28'815.0
2018-Jun-08 20:00N 50°24' W 003°25'4 8.8
2018-Jun-08 19:30N 50°26' W 003°19'816.4
2018-Jun-08 19:00N 50°26' W 003°06'918.1
2018-Jun-08 18:30N 50°25' W 002°51'917.8
2018-Jun-08 18:00N 50°25' W 002°38'917.2
2018-Jun-08 17:30N 50°25' W 002°24'816.8
2018-Jun-08 17:00N 50°24' W 002°11'816.5
2018-Jun-08 16:31N 50°25' W 001°58'816.2
2018-Jun-08 16:00N 50°25' W 001°45'816.0
2018-Jun-08 15:31N 50°25' W 001°33'815.7
2018-Jun-08 15:00N 50°26' W 001°20'815.6
2018-Jun-08 14:30N 50°26' W 001°08'815.8
2018-Jun-08 14:01N 50°27' W 000°56'917.0
2018-Jun-08 13:30N 50°27' W 000°43'917.5
2018-Jun-08 13:00N 50°28' W 000°29'917.9
2018-Jun-08 12:30N 50°29' W 000°15'918.4
2018-Jun-08 12:00N 50°30' W 000°00'918.7
2018-Jun-08 11:30N 50°32' E 000°14'918.9
2018-Jun-08 11:00N 50°34' E 000°29'918.9
2018-Jun-08 10:30N 50°38' E 000°42'918.6
2018-Jun-08 10:00N 50°43' E 000°54'918.3
2018-Jun-08 09:30N 50°49' E 001°06'1017.8
2018-Jun-08 08:58N 50°55' E 001°18'817.4
2018-Jun-08 08:30N 51°01' E 001°26'816.6
2018-Jun-08 08:00N 51°07' E 001°35'816.2
2018-Jun-08 07:31N 51°12' E 001°44'816.5
2018-Jun-08 07:00N 51°19' E 001°51'817.0
2018-Jun-08 06:30N 51°26' E 001°58'917.6
2018-Jun-08 06:00N 51°33' E 002°07'918.0
2018-Jun-08 05:30N 51°40' E 002°17'918.2
2018-Jun-08 05:00N 51°47' E 002°27'918.7
2018-Jun-08 04:30N 51°54' E 002°37'919.0
2018-Jun-08 04:00N 52°01' E 002°47'1019.1
2018-Jun-08 03:30N 52°09' E 002°56'1019.2
2018-Jun-08 03:01N 52°16' E 003°05'1019.0
2018-Jun-08 02:30N 52°24' E 003°14'918.8
2018-Jun-08 02:01N 52°32' E 003°22'918.4
2018-Jun-08 01:30N 52°40' E 003°32'918.0
2018-Jun-08 01:00N 52°46' E 003°41'917.6
2018-Jun-08 00:30N 52°53' E 003°51'917.1
2018-Jun-08 00:00N 52°59' E 004°01'917.1
2018-Jun-07 23:30N 53°05' E 004°11'917.0
2018-Jun-07 23:00N 53°10' E 004°22'816.6
2018-Jun-07 22:30N 53°17' E 004°29'817.0
2018-Jun-07 22:01N 53°25' E 004°35'816.3
2018-Jun-07 21:30N 53°31' E 004°45'918.1
2018-Jun-07 21:01N 53°34' E 004°59'918.6
2018-Jun-07 20:31N 53°37' E 005°14'1019.0
2018-Jun-07 20:00N 53°40' E 005°29'918.7
2018-Jun-07 19:30N 53°43' E 005°44'918.6
2018-Jun-07 19:00N 53°46' E 005°59'1218.5
2018-Jun-07 18:23N 53°50' E 006°18'718.2
2018-Jun-07 18:01N 53°52' E 006°29'5314.7
2018-Jun-07 14:27N 53°51' E 007°58'614.8
2018-Jun-07 14:00N 53°49' E 008°07'714.9
2018-Jun-07 13:30N 53°43' E 008°17'714.7
2018-Jun-07 13:00N 53°38' E 008°26'511.0
2018-Jun-07 12:30N 53°34' E 008°32'1 1.2
2018-Jun-07 12:00N 53°34' E 008°33'0 0.1
2018-Jun-07 11:30N 53°34' E 008°33'0 0.8
2018-Jun-07 11:00N 53°35' E 008°33'0 0.0
2018-Jun-07 10:30N 53°35' E 008°33'0 0.0
2018-Jun-07 10:00N 53°35' E 008°33'0 0.0
2018-Jun-07 09:30N 53°35' E 008°33'0 0.0
2018-Jun-07 09:00N 53°35' E 008°33'0 0.0
2018-Jun-07 08:30N 53°35' E 008°33'0 0.0
2018-Jun-07 08:00N 53°35' E 008°33'0 0.0
2018-Jun-07 07:30N 53°35' E 008°33'0 0.0
2018-Jun-07 07:00N 53°35' E 008°33'0 0.0
2018-Jun-07 06:30N 53°35' E 008°33'0 0.0
2018-Jun-07 06:00N 53°35' E 008°33'0 0.0
2018-Jun-07 05:30N 53°35' E 008°33'0 0.0
2018-Jun-07 05:00N 53°35' E 008°33'0 0.0
2018-Jun-07 04:30N 53°35' E 008°33'0 0.0
2018-Jun-07 04:00N 53°35' E 008°33'0 0.0
2018-Jun-07 03:30N 53°35' E 008°33'0 0.0
2018-Jun-07 03:00N 53°35' E 008°33'0 0.0
2018-Jun-07 02:30N 53°35' E 008°33'0 0.0
2018-Jun-07 02:00N 53°35' E 008°33'0 0.0
2018-Jun-07 01:30N 53°35' E 008°33'0 0.0
2018-Jun-07 01:00N 53°35' E 008°33'0 0.0
2018-Jun-07 00:30N 53°35' E 008°33'0 0.0
2018-Jun-07 00:00N 53°35' E 008°33'0 0.0
2018-Jun-06 23:30N 53°35' E 008°33'0 0.0
2018-Jun-06 23:00N 53°35' E 008°33'0 0.0
2018-Jun-06 22:30N 53°35' E 008°33'0 0.0
2018-Jun-06 22:00N 53°35' E 008°33'0 0.0
2018-Jun-06 21:30N 53°35' E 008°33'0 0.0
2018-Jun-06 21:00N 53°35' E 008°33'0 0.0
2018-Jun-06 20:30N 53°35' E 008°33'0 0.0
2018-Jun-06 20:00N 53°35' E 008°33'0 0.0
2018-Jun-06 19:30N 53°35' E 008°33'0 0.0
2018-Jun-06 19:00N 53°35' E 008°33'0 0.0
2018-Jun-06 18:30N 53°35' E 008°33'0 0.0
2018-Jun-06 18:00N 53°35' E 008°33'0 0.0
2018-Jun-06 17:30N 53°35' E 008°33'0 0.0
2018-Jun-06 17:00N 53°35' E 008°33'0 0.0
2018-Jun-06 16:30N 53°35' E 008°33'0 0.0
2018-Jun-06 16:00N 53°35' E 008°33'0 0.0
2018-Jun-06 15:30N 53°35' E 008°33'0 0.0
2018-Jun-06 15:00N 53°35' E 008°33'0 0.0
2018-Jun-06 14:30N 53°35' E 008°33'0 0.0
2018-Jun-06 14:00N 53°35' E 008°33'0 0.0
2018-Jun-06 13:30N 53°35' E 008°33'0 0.0
2018-Jun-06 13:00N 53°35' E 008°33'0 0.0
2018-Jun-06 12:30N 53°35' E 008°33'0 0.0
2018-Jun-06 12:00N 53°35' E 008°33'0 0.0
2018-Jun-06 11:30N 53°35' E 008°33'0 0.0
2018-Jun-06 11:00N 53°35' E 008°33'0 0.0
2018-Jun-06 10:30N 53°35' E 008°33'0 0.0
2018-Jun-06 10:00N 53°35' E 008°33'0 0.0
2018-Jun-06 09:30N 53°35' E 008°33'0 0.0
2018-Jun-06 09:00N 53°35' E 008°33'0 0.0
2018-Jun-06 08:30N 53°35' E 008°33'0 0.0
2018-Jun-06 08:00N 53°35' E 008°33'0 0.0
2018-Jun-06 07:30N 53°35' E 008°33'0 0.0
2018-Jun-06 07:00N 53°35' E 008°33'0 0.0
2018-Jun-06 06:30N 53°35' E 008°33'0 0.0
2018-Jun-06 06:00N 53°35' E 008°33'0 0.0
2018-Jun-06 05:30N 53°35' E 008°33'0 0.0
2018-Jun-06 05:00N 53°35' E 008°33'0 0.0
2018-Jun-06 04:30N 53°35' E 008°33'0 0.0
2018-Jun-06 04:00N 53°35' E 008°33'0 0.0
2018-Jun-06 03:30N 53°35' E 008°33'0 0.0
2018-Jun-06 03:00N 53°35' E 008°33'0 0.0
2018-Jun-06 02:30N 53°35' E 008°33'0 0.0
2018-Jun-06 02:00N 53°35' E 008°33'0 0.9
2018-Jun-06 01:30N 53°34' E 008°33'0 0.6
2018-Jun-06 01:00N 53°34' E 008°33'3 5.6
2018-Jun-06 00:30N 53°36' E 008°30'714.5
2018-Jun-06 00:00N 53°41' E 008°21'714.8
2018-Jun-05 23:30N 53°46' E 008°11'713.9
2018-Jun-05 23:00N 53°50' E 008°03'612.8
2018-Jun-05 22:30N 53°52' E 007°52'5 9.8
2018-Jun-05 22:00N 53°53' E 007°44'5 9.8
2018-Jun-05 21:30N 53°56' E 007°38'5 9.3
2018-Jun-05 21:00N 54°01' E 007°35'4 7.2
2018-Jun-05 20:30N 54°03' E 007°31'4 7.5
2018-Jun-05 20:00N 54°05' E 007°25'0 0.0
2018-Jun-05 10:45N 54°05' E 007°24'0 0.0
2018-Jun-05 10:27N 54°05' E 007°24'0 0.0
2018-Jun-05 09:48N 54°05' E 007°24'0 0.0
2018-Jun-05 08:24N 54°05' E 007°24'0 0.0
2018-Jun-05 07:51N 54°05' E 007°24'0 0.0
2018-Jun-05 06:57N 54°05' E 007°24'0 0.0
2018-Jun-05 06:30N 54°05' E 007°24'0 0.0
2018-Jun-05 06:00N 54°05' E 007°24'0 0.0
2018-Jun-05 05:30N 54°05' E 007°24'0 0.0
2018-Jun-05 04:54N 54°05' E 007°24'0 0.0
2018-Jun-05 03:54N 54°05' E 007°24'0 0.0
2018-Jun-05 03:30N 54°05' E 007°24'0 0.1
2018-Jun-05 03:00N 54°05' E 007°24'0 0.0
2018-Jun-05 02:24N 54°05' E 007°24'0 0.0
2018-Jun-05 02:00N 54°05' E 007°24'0 0.0
2018-Jun-05 01:27N 54°05' E 007°24'0 0.0
2018-Jun-05 00:54N 54°05' E 007°24'0 0.0
2018-Jun-05 00:21N 54°05' E 007°24'0 0.0
2018-Jun-04 23:42N 54°05' E 007°24'0 0.0
2018-Jun-04 23:24N 54°05' E 007°24'0 0.0
2018-Jun-04 22:57N 54°05' E 007°24'0 0.0
2018-Jun-04 22:27N 54°05' E 007°24'0 0.1
2018-Jun-04 21:54N 54°05' E 007°24'0 0.0
2018-Jun-04 20:42N 54°05' E 007°24'0 0.0
2018-Jun-04 19:15N 54°05' E 007°24'0 0.0
2018-Jun-04 18:57N 54°05' E 007°24'0 0.0
2018-Jun-04 16:33N 54°05' E 007°24'0 0.1
2018-Jun-04 16:30N 54°05' E 007°24'0 0.0
2018-Jun-04 16:00N 54°05' E 007°24'0 0.0
2018-Jun-04 15:27N 54°05' E 007°24'0 0.0
2018-Jun-04 14:54N 54°05' E 007°24'0 0.0
2018-Jun-04 14:18N 54°05' E 007°24'0 0.0
2018-Jun-04 13:57N 54°05' E 007°24'0 0.0
2018-Jun-04 13:27N 54°05' E 007°24'0 0.0
2018-Jun-04 12:57N 54°05' E 007°24'0 0.0
2018-Jun-04 12:30N 54°05' E 007°24'0 0.0
2018-Jun-04 11:57N 54°05' E 007°24'  
2018-Jun-02 07:52N 53°39' E 006°00'717.9
2018-Jun-02 07:29N 53°38' E 005°49'917.9
2018-Jun-02 07:00N 53°35' E 005°35'918.0
2018-Jun-02 06:30N 53°32' E 005°21'917.6
2018-Jun-02 06:00N 53°31' E 005°06'917.6
2018-Jun-02 05:30N 53°27' E 004°53'816.8
2018-Jun-02 05:00N 53°22' E 004°42'917.1
2018-Jun-02 04:30N 53°14' E 004°36'816.7
2018-Jun-02 04:00N 53°07' E 004°29'816.5
2018-Jun-02 03:30N 53°00' E 004°21'816.0
2018-Jun-02 03:00N 52°53' E 004°16'816.2
2018-Jun-02 02:30N 52°47' E 004°07'815.9
2018-Jun-02 02:00N 52°39' E 004°06'715.0
2018-Jun-02 01:30N 52°32' E 004°11'815.9
2018-Jun-02 01:00N 52°30' E 004°24'510.7
2018-Jun-02 00:30N 52°28' E 004°32'3 5.5
2018-Jun-02 00:01N 52°28' E 004°36'1 1.8
2018-Jun-01 23:30N 52°28' E 004°38'3 5.1
2018-Jun-01 23:00N 52°27' E 004°42'2 4.0
2018-Jun-01 22:31N 52°26' E 004°45'2 4.2
2018-Jun-01 22:01N 52°25' E 004°48'1 2.0
2018-Jun-01 21:28N 52°24' E 004°49'0 0.0
2018-Jun-01 21:01N 52°24' E 004°49'0 0.0
2018-Jun-01 20:31N 52°24' E 004°49'0 0.0
2018-Jun-01 20:01N 52°24' E 004°49'0 0.0
2018-Jun-01 19:31N 52°24' E 004°49'0 0.0
2018-Jun-01 18:58N 52°24' E 004°49'0 0.0
2018-Jun-01 18:30N 52°24' E 004°49'0 0.0
2018-Jun-01 18:01N 52°24' E 004°49'0 0.0
2018-Jun-01 17:31N 52°24' E 004°49'0 0.0
2018-Jun-01 17:01N 52°24' E 004°49'0 0.0
2018-Jun-01 16:28N 52°24' E 004°49'0 0.0
2018-Jun-01 15:58N 52°24' E 004°49'0 0.0
2018-Jun-01 15:31N 52°24' E 004°49'0 0.0
2018-Jun-01 15:01N 52°24' E 004°49'0 0.0
2018-Jun-01 14:31N 52°24' E 004°49'0 0.0
2018-Jun-01 14:00N 52°24' E 004°49'0 0.0
2018-Jun-01 13:31N 52°24' E 004°49'0 0.0
2018-Jun-01 12:58N 52°24' E 004°49'0 0.0
2018-Jun-01 12:30N 52°24' E 004°49'0 0.0
2018-Jun-01 12:01N 52°24' E 004°49'0 0.0
2018-Jun-01 11:31N 52°24' E 004°49'0 0.0
2018-Jun-01 10:58N 52°24' E 004°49'0 0.0
2018-Jun-01 10:27N 52°24' E 004°49'0 0.0
2018-Jun-01 10:00N 52°24' E 004°49'0 0.0
2018-Jun-01 09:30N 52°24' E 004°49'0 0.0
2018-Jun-01 09:00N 52°24' E 004°49'0 0.0
2018-Jun-01 08:30N 52°24' E 004°49'0 0.0
2018-Jun-01 08:00N 52°24' E 004°49'0 0.0
2018-Jun-01 07:30N 52°24' E 004°49'0 0.0
2018-Jun-01 07:00N 52°24' E 004°49'0 0.0
2018-Jun-01 06:30N 52°24' E 004°49'0 0.0
2018-Jun-01 06:00N 52°24' E 004°49'0 0.0
2018-Jun-01 05:30N 52°24' E 004°49'0 0.0
2018-Jun-01 05:00N 52°24' E 004°49'0 0.0
2018-Jun-01 04:30N 52°24' E 004°49'0 0.0
2018-Jun-01 04:00N 52°24' E 004°49'0 0.0
2018-Jun-01 03:30N 52°24' E 004°49'0 0.0
2018-Jun-01 03:00N 52°24' E 004°49'0 0.0
2018-Jun-01 02:30N 52°24' E 004°49'0 0.0
2018-Jun-01 02:00N 52°24' E 004°49'0 0.0
2018-Jun-01 01:30N 52°24' E 004°49'0 0.0
2018-Jun-01 01:00N 52°24' E 004°49'0 0.0
2018-Jun-01 00:30N 52°24' E 004°49'0 0.0
2018-Jun-01 00:00N 52°24' E 004°49'0 0.0
2018-May-31 23:30N 52°24' E 004°49'0 0.0
2018-May-31 23:00N 52°24' E 004°49'0 0.0
2018-May-31 22:30N 52°24' E 004°49'0 0.0
2018-May-31 22:00N 52°24' E 004°49'0 0.0
2018-May-31 21:30N 52°24' E 004°49'0 0.0
2018-May-31 21:00N 52°24' E 004°49'0 0.0
2018-May-31 20:30N 52°24' E 004°49'0 0.0
2018-May-31 20:00N 52°24' E 004°49'0 0.0
2018-May-31 19:30N 52°24' E 004°49'0 0.0
2018-May-31 19:00N 52°24' E 004°49'0 0.0
2018-May-31 18:30N 52°24' E 004°49'0 0.0
2018-May-31 18:00N 52°24' E 004°49'0 0.0
2018-May-31 17:30N 52°24' E 004°49'0 0.0
2018-May-31 17:00N 52°24' E 004°49'0 0.0
2018-May-31 16:27N 52°24' E 004°49'0 0.0
2018-May-31 16:00N 52°24' E 004°49'1 1.1
2018-May-31 15:31N 52°25' E 004°49'3 6.1
2018-May-31 15:01N 52°26' E 004°44'3 6.8
2018-May-31 14:30N 52°28' E 004°39'2 3.4
2018-May-31 14:00N 52°28' E 004°37'2 4.0
2018-May-31 13:31N 52°28' E 004°33'510.4
2018-May-31 13:00N 52°28' E 004°25'4 8.0
2018-May-31 12:30N 52°29' E 004°18'3 5.9
2018-May-31 12:00N 52°29' E 004°13'2 3.9
2018-May-31 11:30N 52°29' E 004°10'611.9
2018-May-31 11:00N 52°34' E 004°05'816.2
2018-May-31 10:30N 52°41' E 003°59'816.4
2018-May-31 09:59N 52°48' E 003°51'1016.9
2018-May-31 09:25N 52°57' E 003°44'14215.5
2018-May-31 00:17N 54°22' E 000°32'515.2
2018-May-30 23:59N 54°24' E 000°26'715.2
2018-May-30 23:31N 54°28' E 000°15'815.2
2018-May-30 23:01N 54°32' E 000°04'815.2
2018-May-30 22:31N 54°36' W 000°08'815.3
2018-May-30 22:01N 54°40' W 000°19'3015.8
2018-May-30 20:07N 54°56' W 001°03'216.1
2018-May-30 20:01N 54°57' W 001°05'815.3
2018-May-30 19:30N 55°01' W 001°17'4 8.8
2018-May-30 19:00N 55°01' W 001°25'2 4.9
2018-May-30 18:30N 54°59' W 001°28'0 0.0
2018-May-30 18:00N 54°59' W 001°28'0 0.0
2018-May-30 17:30N 54°59' W 001°28'0 0.0
2018-May-30 17:00N 54°59' W 001°28'0 0.0
2018-May-30 16:30N 54°59' W 001°28'0 0.0
2018-May-30 16:00N 54°59' W 001°28'0 0.0
2018-May-30 15:30N 54°59' W 001°28'0 0.0
2018-May-30 15:00N 54°59' W 001°28'0 0.0
2018-May-30 14:30N 54°59' W 001°28'0 0.0
2018-May-30 14:00N 54°59' W 001°28'0 0.0
2018-May-30 13:30N 54°59' W 001°28'0 0.0
2018-May-30 13:00N 54°59' W 001°28'0 0.0
2018-May-30 12:30N 54°59' W 001°28'0 0.0
2018-May-30 12:00N 54°59' W 001°28'0 0.0
2018-May-30 11:27N 54°59' W 001°28'0 0.0
2018-May-30 11:00N 54°59' W 001°28'0 0.0
2018-May-30 10:24N 54°59' W 001°28'0 0.0
2018-May-30 09:57N 54°59' W 001°28'0 0.0
2018-May-30 09:27N 54°59' W 001°28'0 0.0
2018-May-30 08:57N 54°59' W 001°28'0 0.0
2018-May-30 08:30N 54°59' W 001°28'0 0.0
2018-May-30 08:00N 54°59' W 001°28'0 0.0
2018-May-30 07:30N 54°59' W 001°28'0 0.0
2018-May-30 07:00N 54°59' W 001°28'0 0.0
2018-May-30 06:30N 54°59' W 001°28'0 0.0
2018-May-30 06:00N 54°59' W 001°28'0 0.0
2018-May-30 05:30N 54°59' W 001°28'0 0.0
2018-May-30 05:00N 54°59' W 001°28'0 0.0
2018-May-30 04:30N 54°59' W 001°28'0 0.0
2018-May-30 04:00N 54°59' W 001°28'0 0.0
2018-May-30 03:30N 54°59' W 001°28'0 0.0
2018-May-30 03:00N 54°59' W 001°28'0 0.0
2018-May-30 02:30N 54°59' W 001°28'0 0.0
2018-May-30 02:00N 54°59' W 001°28'0 0.0
2018-May-30 01:30N 54°59' W 001°28'0 0.0
2018-May-30 01:00N 54°59' W 001°28'0 0.0
2018-May-30 00:27N 54°59' W 001°28'0 0.0
2018-May-30 00:00N 54°59' W 001°28'0 0.0
2018-May-29 23:30N 54°59' W 001°28'0 0.0
2018-May-29 23:00N 54°59' W 001°28'0 0.0
2018-May-29 22:27N 54°59' W 001°28'  
Track history (hours):
 
Tides and Currents Weather Stations Pressure Air Temp Water Temp Dewpoint Dewpoint Depression Visibility Wind Speed Wind Dir Waves Ship Positions

Mercury Ace

Last reported at 2018-Jun-08 22:03 UTC. Time now 2018-Jun-19 00:55 UTC.
Position N 49°58' W 004°01'.
Warning: this ship's position is 10 days out of date.

Length 199 m; draft 8.5 m.

Type: Ship. MMSI: 370644000.

Date/timePositionNaut miles runAvg speedWind from/ knotsBaromVisibWave heightAir tempDewpointWater temp
2018-Jun-08 22:03N 49°58' W 004°01'118.3
2018-Jun-08 22:01N 49°59' W 003°60'1018.6
2018-Jun-08 21:29N 50°02' W 003°45'919.1
2018-Jun-08 21:00N 50°08' W 003°35'919.0
2018-Jun-08 20:31N 50°17' W 003°28'815.0
2018-Jun-08 20:00N 50°24' W 003°25'4 8.8
2018-Jun-08 19:30N 50°26' W 003°19'816.4
2018-Jun-08 19:00N 50°26' W 003°06'918.1
2018-Jun-08 18:30N 50°25' W 002°51'917.8
2018-Jun-08 18:00N 50°25' W 002°38'917.2
2018-Jun-08 17:30N 50°25' W 002°24'816.8
2018-Jun-08 17:00N 50°24' W 002°11'816.5
2018-Jun-08 16:31N 50°25' W 001°58'816.2
2018-Jun-08 16:00N 50°25' W 001°45'816.0
2018-Jun-08 15:31N 50°25' W 001°33'815.7
2018-Jun-08 15:00N 50°26' W 001°20'815.6
2018-Jun-08 14:30N 50°26' W 001°08'815.8
2018-Jun-08 14:01N 50°27' W 000°56'917.0
2018-Jun-08 13:30N 50°27' W 000°43'917.5
2018-Jun-08 13:00N 50°28' W 000°29'917.9
2018-Jun-08 12:30N 50°29' W 000°15'918.4
2018-Jun-08 12:00N 50°30' W 000°00'918.7
2018-Jun-08 11:30N 50°32' E 000°14'918.9
2018-Jun-08 11:00N 50°34' E 000°29'918.9
2018-Jun-08 10:30N 50°38' E 000°42'918.6
2018-Jun-08 10:00N 50°43' E 000°54'918.3
2018-Jun-08 09:30N 50°49' E 001°06'1017.8
2018-Jun-08 08:58N 50°55' E 001°18'817.4
2018-Jun-08 08:30N 51°01' E 001°26'816.6
2018-Jun-08 08:00N 51°07' E 001°35'816.2
2018-Jun-08 07:31N 51°12' E 001°44'816.5
2018-Jun-08 07:00N 51°19' E 001°51'817.0
2018-Jun-08 06:30N 51°26' E 001°58'917.6
2018-Jun-08 06:00N 51°33' E 002°07'918.0
2018-Jun-08 05:30N 51°40' E 002°17'918.2
2018-Jun-08 05:00N 51°47' E 002°27'918.7
2018-Jun-08 04:30N 51°54' E 002°37'919.0
2018-Jun-08 04:00N 52°01' E 002°47'1019.1
2018-Jun-08 03:30N 52°09' E 002°56'1019.2
2018-Jun-08 03:01N 52°16' E 003°05'1019.0
2018-Jun-08 02:30N 52°24' E 003°14'918.8
2018-Jun-08 02:01N 52°32' E 003°22'918.4
2018-Jun-08 01:30N 52°40' E 003°32'918.0
2018-Jun-08 01:00N 52°46' E 003°41'917.6
2018-Jun-08 00:30N 52°53' E 003°51'917.1
2018-Jun-08 00:00N 52°59' E 004°01'917.1
2018-Jun-07 23:30N 53°05' E 004°11'917.0
2018-Jun-07 23:00N 53°10' E 004°22'816.6
2018-Jun-07 22:30N 53°17' E 004°29'817.0
2018-Jun-07 22:01N 53°25' E 004°35'816.3
2018-Jun-07 21:30N 53°31' E 004°45'918.1
2018-Jun-07 21:01N 53°34' E 004°59'918.6
2018-Jun-07 20:31N 53°37' E 005°14'1019.0
2018-Jun-07 20:00N 53°40' E 005°29'918.7
2018-Jun-07 19:30N 53°43' E 005°44'918.6
2018-Jun-07 19:00N 53°46' E 005°59'1218.5
2018-Jun-07 18:23N 53°50' E 006°18'718.2
2018-Jun-07 18:01N 53°52' E 006°29'5314.7
2018-Jun-07 14:27N 53°51' E 007°58'614.8
2018-Jun-07 14:00N 53°49' E 008°07'714.9
2018-Jun-07 13:30N 53°43' E 008°17'714.7
2018-Jun-07 13:00N 53°38' E 008°26'511.0
2018-Jun-07 12:30N 53°34' E 008°32'1 1.2
2018-Jun-07 12:00N 53°34' E 008°33'0 0.1
2018-Jun-07 11:30N 53°34' E 008°33'0 0.8
2018-Jun-07 11:00N 53°35' E 008°33'0 0.0
2018-Jun-07 10:30N 53°35' E 008°33'0 0.0
2018-Jun-07 10:00N 53°35' E 008°33'0 0.0
2018-Jun-07 09:30N 53°35' E 008°33'0 0.0
2018-Jun-07 09:00N 53°35' E 008°33'0 0.0
2018-Jun-07 08:30N 53°35' E 008°33'0 0.0
2018-Jun-07 08:00N 53°35' E 008°33'0 0.0
2018-Jun-07 07:30N 53°35' E 008°33'0 0.0
2018-Jun-07 07:00N 53°35' E 008°33'0 0.0
2018-Jun-07 06:30N 53°35' E 008°33'0 0.0
2018-Jun-07 06:00N 53°35' E 008°33'0 0.0
2018-Jun-07 05:30N 53°35' E 008°33'0 0.0
2018-Jun-07 05:00N 53°35' E 008°33'0 0.0
2018-Jun-07 04:30N 53°35' E 008°33'0 0.0
2018-Jun-07 04:00N 53°35' E 008°33'0 0.0
2018-Jun-07 03:30N 53°35' E 008°33'0 0.0
2018-Jun-07 03:00N 53°35' E 008°33'0 0.0
2018-Jun-07 02:30N 53°35' E 008°33'0 0.0
2018-Jun-07 02:00N 53°35' E 008°33'0 0.0
2018-Jun-07 01:30N 53°35' E 008°33'0 0.0
2018-Jun-07 01:00N 53°35' E 008°33'0 0.0
2018-Jun-07 00:30N 53°35' E 008°33'0 0.0
2018-Jun-07 00:00N 53°35' E 008°33'0 0.0
2018-Jun-06 23:30N 53°35' E 008°33'0 0.0
2018-Jun-06 23:00N 53°35' E 008°33'0 0.0
2018-Jun-06 22:30N 53°35' E 008°33'0 0.0
2018-Jun-06 22:00N 53°35' E 008°33'0 0.0
2018-Jun-06 21:30N 53°35' E 008°33'0 0.0
2018-Jun-06 21:00N 53°35' E 008°33'0 0.0
2018-Jun-06 20:30N 53°35' E 008°33'0 0.0
2018-Jun-06 20:00N 53°35' E 008°33'0 0.0
2018-Jun-06 19:30N 53°35' E 008°33'0 0.0
2018-Jun-06 19:00N 53°35' E 008°33'0 0.0
2018-Jun-06 18:30N 53°35' E 008°33'0 0.0
2018-Jun-06 18:00N 53°35' E 008°33'0 0.0
2018-Jun-06 17:30N 53°35' E 008°33'0 0.0
2018-Jun-06 17:00N 53°35' E 008°33'0 0.0
2018-Jun-06 16:30N 53°35' E 008°33'0 0.0
2018-Jun-06 16:00N 53°35' E 008°33'0 0.0
2018-Jun-06 15:30N 53°35' E 008°33'0 0.0
2018-Jun-06 15:00N 53°35' E 008°33'0 0.0
2018-Jun-06 14:30N 53°35' E 008°33'0 0.0
2018-Jun-06 14:00N 53°35' E 008°33'0 0.0
2018-Jun-06 13:30N 53°35' E 008°33'0 0.0
2018-Jun-06 13:00N 53°35' E 008°33'0 0.0
2018-Jun-06 12:30N 53°35' E 008°33'0 0.0
2018-Jun-06 12:00N 53°35' E 008°33'0 0.0
2018-Jun-06 11:30N 53°35' E 008°33'0 0.0
2018-Jun-06 11:00N 53°35' E 008°33'0 0.0
2018-Jun-06 10:30N 53°35' E 008°33'0 0.0
2018-Jun-06 10:00N 53°35' E 008°33'0 0.0
2018-Jun-06 09:30N 53°35' E 008°33'0 0.0
2018-Jun-06 09:00N 53°35' E 008°33'0 0.0
2018-Jun-06 08:30N 53°35' E 008°33'0 0.0
2018-Jun-06 08:00N 53°35' E 008°33'0 0.0
2018-Jun-06 07:30N 53°35' E 008°33'0 0.0
2018-Jun-06 07:00N 53°35' E 008°33'0 0.0
2018-Jun-06 06:30N 53°35' E 008°33'0 0.0
2018-Jun-06 06:00N 53°35' E 008°33'0 0.0
2018-Jun-06 05:30N 53°35' E 008°33'0 0.0
2018-Jun-06 05:00N 53°35' E 008°33'0 0.0
2018-Jun-06 04:30N 53°35' E 008°33'0 0.0
2018-Jun-06 04:00N 53°35' E 008°33'0 0.0
2018-Jun-06 03:30N 53°35' E 008°33'0 0.0
2018-Jun-06 03:00N 53°35' E 008°33'0 0.0
2018-Jun-06 02:30N 53°35' E 008°33'0 0.0
2018-Jun-06 02:00N 53°35' E 008°33'0 0.9
2018-Jun-06 01:30N 53°34' E 008°33'0 0.6
2018-Jun-06 01:00N 53°34' E 008°33'3 5.6
2018-Jun-06 00:30N 53°36' E 008°30'714.5
2018-Jun-06 00:00N 53°41' E 008°21'714.8
2018-Jun-05 23:30N 53°46' E 008°11'713.9
2018-Jun-05 23:00N 53°50' E 008°03'612.8
2018-Jun-05 22:30N 53°52' E 007°52'5 9.8
2018-Jun-05 22:00N 53°53' E 007°44'5 9.8
2018-Jun-05 21:30N 53°56' E 007°38'5 9.3
2018-Jun-05 21:00N 54°01' E 007°35'4 7.2
2018-Jun-05 20:30N 54°03' E 007°31'4 7.5
2018-Jun-05 20:00N 54°05' E 007°25'0 0.0
2018-Jun-05 10:45N 54°05' E 007°24'0 0.0
2018-Jun-05 10:27N 54°05' E 007°24'0 0.0
2018-Jun-05 09:48N 54°05' E 007°24'0 0.0
2018-Jun-05 08:24N 54°05' E 007°24'0 0.0
2018-Jun-05 07:51N 54°05' E 007°24'0 0.0
2018-Jun-05 06:57N 54°05' E 007°24'0 0.0
2018-Jun-05 06:30N 54°05' E 007°24'0 0.0
2018-Jun-05 06:00N 54°05' E 007°24'0 0.0
2018-Jun-05 05:30N 54°05' E 007°24'0 0.0
2018-Jun-05 04:54N 54°05' E 007°24'0 0.0
2018-Jun-05 03:54N 54°05' E 007°24'0 0.0
2018-Jun-05 03:30N 54°05' E 007°24'0 0.1
2018-Jun-05 03:00N 54°05' E 007°24'0 0.0
2018-Jun-05 02:24N 54°05' E 007°24'0 0.0
2018-Jun-05 02:00N 54°05' E 007°24'0 0.0
2018-Jun-05 01:27N 54°05' E 007°24'0 0.0
2018-Jun-05 00:54N 54°05' E 007°24'0 0.0
2018-Jun-05 00:21N 54°05' E 007°24'0 0.0
2018-Jun-04 23:42N 54°05' E 007°24'0 0.0
2018-Jun-04 23:24N 54°05' E 007°24'0 0.0
2018-Jun-04 22:57N 54°05' E 007°24'0 0.0
2018-Jun-04 22:27N 54°05' E 007°24'0 0.1
2018-Jun-04 21:54N 54°05' E 007°24'0 0.0
2018-Jun-04 20:42N 54°05' E 007°24'0 0.0
2018-Jun-04 19:15N 54°05' E 007°24'0 0.0
2018-Jun-04 18:57N 54°05' E 007°24'0 0.0
2018-Jun-04 16:33N 54°05' E 007°24'0 0.1
2018-Jun-04 16:30N 54°05' E 007°24'0 0.0
2018-Jun-04 16:00N 54°05' E 007°24'0 0.0
2018-Jun-04 15:27N 54°05' E 007°24'0 0.0
2018-Jun-04 14:54N 54°05' E 007°24'0 0.0
2018-Jun-04 14:18N 54°05' E 007°24'0 0.0
2018-Jun-04 13:57N 54°05' E 007°24'0 0.0
2018-Jun-04 13:27N 54°05' E 007°24'0 0.0
2018-Jun-04 12:57N 54°05' E 007°24'0 0.0
2018-Jun-04 12:30N 54°05' E 007°24'0 0.0
2018-Jun-04 11:57N 54°05' E 007°24'  
2018-Jun-02 07:52N 53°39' E 006°00'717.9
2018-Jun-02 07:29N 53°38' E 005°49'917.9
2018-Jun-02 07:00N 53°35' E 005°35'918.0
2018-Jun-02 06:30N 53°32' E 005°21'917.6
2018-Jun-02 06:00N 53°31' E 005°06'917.6
2018-Jun-02 05:30N 53°27' E 004°53'816.8
2018-Jun-02 05:00N 53°22' E 004°42'917.1
2018-Jun-02 04:30N 53°14' E 004°36'816.7
2018-Jun-02 04:00N 53°07' E 004°29'816.5
2018-Jun-02 03:30N 53°00' E 004°21'816.0
2018-Jun-02 03:00N 52°53' E 004°16'816.2
2018-Jun-02 02:30N 52°47' E 004°07'815.9
2018-Jun-02 02:00N 52°39' E 004°06'715.0
2018-Jun-02 01:30N 52°32' E 004°11'815.9
2018-Jun-02 01:00N 52°30' E 004°24'510.7
2018-Jun-02 00:30N 52°28' E 004°32'3 5.5
2018-Jun-02 00:01N 52°28' E 004°36'1 1.8
2018-Jun-01 23:30N 52°28' E 004°38'3 5.1
2018-Jun-01 23:00N 52°27' E 004°42'2 4.0
2018-Jun-01 22:31N 52°26' E 004°45'2 4.2
2018-Jun-01 22:01N 52°25' E 004°48'1 2.0
2018-Jun-01 21:28N 52°24' E 004°49'0 0.0
2018-Jun-01 21:01N 52°24' E 004°49'0 0.0
2018-Jun-01 20:31N 52°24' E 004°49'0 0.0
2018-Jun-01 20:01N 52°24' E 004°49'0 0.0
2018-Jun-01 19:31N 52°24' E 004°49'0 0.0
2018-Jun-01 18:58N 52°24' E 004°49'0 0.0
2018-Jun-01 18:30N 52°24' E 004°49'0 0.0
2018-Jun-01 18:01N 52°24' E 004°49'0 0.0
2018-Jun-01 17:31N 52°24' E 004°49'0 0.0
2018-Jun-01 17:01N 52°24' E 004°49'0 0.0
2018-Jun-01 16:28N 52°24' E 004°49'0 0.0
2018-Jun-01 15:58N 52°24' E 004°49'0 0.0
2018-Jun-01 15:31N 52°24' E 004°49'0 0.0
2018-Jun-01 15:01N 52°24' E 004°49'0 0.0
2018-Jun-01 14:31N 52°24' E 004°49'0 0.0
2018-Jun-01 14:00N 52°24' E 004°49'0 0.0
2018-Jun-01 13:31N 52°24' E 004°49'0 0.0
2018-Jun-01 12:58N 52°24' E 004°49'0 0.0
2018-Jun-01 12:30N 52°24' E 004°49'0 0.0
2018-Jun-01 12:01N 52°24' E 004°49'0 0.0
2018-Jun-01 11:31N 52°24' E 004°49'0 0.0
2018-Jun-01 10:58N 52°24' E 004°49'0 0.0
2018-Jun-01 10:27N 52°24' E 004°49'0 0.0
2018-Jun-01 10:00N 52°24' E 004°49'0 0.0
2018-Jun-01 09:30N 52°24' E 004°49'0 0.0
2018-Jun-01 09:00N 52°24' E 004°49'0 0.0
2018-Jun-01 08:30N 52°24' E 004°49'0 0.0
2018-Jun-01 08:00N 52°24' E 004°49'0 0.0
2018-Jun-01 07:30N 52°24' E 004°49'0 0.0
2018-Jun-01 07:00N 52°24' E 004°49'0 0.0
2018-Jun-01 06:30N 52°24' E 004°49'0 0.0
2018-Jun-01 06:00N 52°24' E 004°49'0 0.0
2018-Jun-01 05:30N 52°24' E 004°49'0 0.0
2018-Jun-01 05:00N 52°24' E 004°49'0 0.0
2018-Jun-01 04:30N 52°24' E 004°49'0 0.0
2018-Jun-01 04:00N 52°24' E 004°49'0 0.0
2018-Jun-01 03:30N 52°24' E 004°49'0 0.0
2018-Jun-01 03:00N 52°24' E 004°49'0 0.0
2018-Jun-01 02:30N 52°24' E 004°49'0 0.0
2018-Jun-01 02:00N 52°24' E 004°49'0 0.0
2018-Jun-01 01:30N 52°24' E 004°49'0 0.0
2018-Jun-01 01:00N 52°24' E 004°49'0 0.0
2018-Jun-01 00:30N 52°24' E 004°49'0 0.0
2018-Jun-01 00:00N 52°24' E 004°49'0 0.0
2018-May-31 23:30N 52°24' E 004°49'0 0.0
2018-May-31 23:00N 52°24' E 004°49'0 0.0
2018-May-31 22:30N 52°24' E 004°49'0 0.0
2018-May-31 22:00N 52°24' E 004°49'0 0.0
2018-May-31 21:30N 52°24' E 004°49'0 0.0
2018-May-31 21:00N 52°24' E 004°49'0 0.0
2018-May-31 20:30N 52°24' E 004°49'0 0.0
2018-May-31 20:00N 52°24' E 004°49'0 0.0
2018-May-31 19:30N 52°24' E 004°49'0 0.0
2018-May-31 19:00N 52°24' E 004°49'0 0.0
2018-May-31 18:30N 52°24' E 004°49'0 0.0
2018-May-31 18:00N 52°24' E 004°49'0 0.0
2018-May-31 17:30N 52°24' E 004°49'0 0.0
2018-May-31 17:00N 52°24' E 004°49'0 0.0
2018-May-31 16:27N 52°24' E 004°49'0 0.0
2018-May-31 16:00N 52°24' E 004°49'1 1.1
2018-May-31 15:31N 52°25' E 004°49'3 6.1
2018-May-31 15:01N 52°26' E 004°44'3 6.8
2018-May-31 14:30N 52°28' E 004°39'2 3.4
2018-May-31 14:00N 52°28' E 004°37'2 4.0
2018-May-31 13:31N 52°28' E 004°33'510.4
2018-May-31 13:00N 52°28' E 004°25'4 8.0
2018-May-31 12:30N 52°29' E 004°18'3 5.9
2018-May-31 12:00N 52°29' E 004°13'2 3.9
2018-May-31 11:30N 52°29' E 004°10'611.9
2018-May-31 11:00N 52°34' E 004°05'816.2
2018-May-31 10:30N 52°41' E 003°59'816.4
2018-May-31 09:59N 52°48' E 003°51'1016.9
2018-May-31 09:25N 52°57' E 003°44'14215.5
2018-May-31 00:17N 54°22' E 000°32'515.2
2018-May-30 23:59N 54°24' E 000°26'715.2
2018-May-30 23:31N 54°28' E 000°15'815.2
2018-May-30 23:01N 54°32' E 000°04'815.2
2018-May-30 22:31N 54°36' W 000°08'815.3
2018-May-30 22:01N 54°40' W 000°19'3015.8
2018-May-30 20:07N 54°56' W 001°03'216.1
2018-May-30 20:01N 54°57' W 001°05'815.3
2018-May-30 19:30N 55°01' W 001°17'4 8.8
2018-May-30 19:00N 55°01' W 001°25'2 4.9
2018-May-30 18:30N 54°59' W 001°28'0 0.0
2018-May-30 18:00N 54°59' W 001°28'0 0.0
2018-May-30 17:30N 54°59' W 001°28'0 0.0
2018-May-30 17:00N 54°59' W 001°28'0 0.0
2018-May-30 16:30N 54°59' W 001°28'0 0.0
2018-May-30 16:00N 54°59' W 001°28'0 0.0
2018-May-30 15:30N 54°59' W 001°28'0 0.0
2018-May-30 15:00N 54°59' W 001°28'0 0.0
2018-May-30 14:30N 54°59' W 001°28'0 0.0
2018-May-30 14:00N 54°59' W 001°28'0 0.0
2018-May-30 13:30N 54°59' W 001°28'0 0.0
2018-May-30 13:00N 54°59' W 001°28'0 0.0
2018-May-30 12:30N 54°59' W 001°28'0 0.0
2018-May-30 12:00N 54°59' W 001°28'0 0.0
2018-May-30 11:27N 54°59' W 001°28'0 0.0
2018-May-30 11:00N 54°59' W 001°28'0 0.0
2018-May-30 10:24N 54°59' W 001°28'0 0.0
2018-May-30 09:57N 54°59' W 001°28'0 0.0
2018-May-30 09:27N 54°59' W 001°28'0 0.0
2018-May-30 08:57N 54°59' W 001°28'0 0.0
2018-May-30 08:30N 54°59' W 001°28'0 0.0
2018-May-30 08:00N 54°59' W 001°28'0 0.0
2018-May-30 07:30N 54°59' W 001°28'0 0.0
2018-May-30 07:00N 54°59' W 001°28'0 0.0
2018-May-30 06:30N 54°59' W 001°28'0 0.0
2018-May-30 06:00N 54°59' W 001°28'0 0.0
2018-May-30 05:30N 54°59' W 001°28'0 0.0
2018-May-30 05:00N 54°59' W 001°28'0 0.0
2018-May-30 04:30N 54°59' W 001°28'0 0.0
2018-May-30 04:00N 54°59' W 001°28'0 0.0
2018-May-30 03:30N 54°59' W 001°28'0 0.0
2018-May-30 03:00N 54°59' W 001°28'0 0.0
2018-May-30 02:30N 54°59' W 001°28'0 0.0
2018-May-30 02:00N 54°59' W 001°28'0 0.0
2018-May-30 01:30N 54°59' W 001°28'0 0.0
2018-May-30 01:00N 54°59' W 001°28'0 0.0
2018-May-30 00:27N 54°59' W 001°28'0 0.0
2018-May-30 00:00N 54°59' W 001°28'0 0.0
2018-May-29 23:30N 54°59' W 001°28'0 0.0
2018-May-29 23:00N 54°59' W 001°28'0 0.0
2018-May-29 22:27N 54°59' W 001°28'  

Dump ship's entire track history